sensor_id;sensor_type;location;lat;lon;timestamp;temperature;humidity
66928;DHT22;59882;45.624;11.698;2023-12-14T00:01:14;7.40;90.40
66928;DHT22;59882;45.624;11.698;2023-12-14T00:03:40;7.40;90.50
66928;DHT22;59882;45.624;11.698;2023-12-14T00:06:07;7.40;90.50
66928;DHT22;59882;45.624;11.698;2023-12-14T00:08:33;7.40;90.40
66928;DHT22;59882;45.624;11.698;2023-12-14T00:11:06;7.40;90.30
66928;DHT22;59882;45.624;11.698;2023-12-14T00:13:33;7.30;90.30
66928;DHT22;59882;45.624;11.698;2023-12-14T00:15:59;7.30;90.20
66928;DHT22;59882;45.624;11.698;2023-12-14T00:18:25;7.30;90.20
66928;DHT22;59882;45.624;11.698;2023-12-14T00:20:50;7.20;90.20
66928;DHT22;59882;45.624;11.698;2023-12-14T00:23:16;7.20;90.20
66928;DHT22;59882;45.624;11.698;2023-12-14T00:25:42;7.10;90.20
66928;DHT22;59882;45.624;11.698;2023-12-14T00:28:08;7.10;90.10
66928;DHT22;59882;45.624;11.698;2023-12-14T00:30:33;7.10;90.10
66928;DHT22;59882;45.624;11.698;2023-12-14T00:32:59;7.00;89.90
66928;DHT22;59882;45.624;11.698;2023-12-14T00:35:24;6.90;89.90
66928;DHT22;59882;45.624;11.698;2023-12-14T00:37:50;6.80;89.80
66928;DHT22;59882;45.624;11.698;2023-12-14T00:40:15;6.80;89.70
66928;DHT22;59882;45.624;11.698;2023-12-14T00:42:41;6.70;89.70
66928;DHT22;59882;45.624;11.698;2023-12-14T00:45:07;6.60;89.80
66928;DHT22;59882;45.624;11.698;2023-12-14T00:47:33;6.60;89.90
66928;DHT22;59882;45.624;11.698;2023-12-14T00:49:58;6.50;90.00
66928;DHT22;59882;45.624;11.698;2023-12-14T00:52:24;6.50;90.10
66928;DHT22;59882;45.624;11.698;2023-12-14T00:54:50;6.50;90.20
66928;DHT22;59882;45.624;11.698;2023-12-14T00:57:15;6.50;90.20
66928;DHT22;59882;45.624;11.698;2023-12-14T00:59:41;6.50;90.30
66928;DHT22;59882;45.624;11.698;2023-12-14T01:02:07;6.50;90.40
66928;DHT22;59882;45.624;11.698;2023-12-14T01:04:32;6.50;90.50
66928;DHT22;59882;45.624;11.698;2023-12-14T01:06:58;6.50;90.50
66928;DHT22;59882;45.624;11.698;2023-12-14T01:09:24;6.50;90.40
66928;DHT22;59882;45.624;11.698;2023-12-14T01:11:49;6.40;90.40
66928;DHT22;59882;45.624;11.698;2023-12-14T01:14:15;6.40;90.30
66928;DHT22;59882;45.624;11.698;2023-12-14T01:16:41;6.30;90.20
66928;DHT22;59882;45.624;11.698;2023-12-14T01:19:06;6.40;90.30
66928;DHT22;59882;45.624;11.698;2023-12-14T01:21:33;6.30;90.30
66928;DHT22;59882;45.624;11.698;2023-12-14T01:23:59;6.40;90.20
66928;DHT22;59882;45.624;11.698;2023-12-14T01:26:26;6.30;90.30
66928;DHT22;59882;45.624;11.698;2023-12-14T01:28:52;6.30;90.20
66928;DHT22;59882;45.624;11.698;2023-12-14T01:31:18;6.30;90.10
66928;DHT22;59882;45.624;11.698;2023-12-14T01:33:44;6.30;90.00
66928;DHT22;59882;45.624;11.698;2023-12-14T01:36:11;6.30;90.00
66928;DHT22;59882;45.624;11.698;2023-12-14T01:38:37;6.30;89.90
66928;DHT22;59882;45.624;11.698;2023-12-14T01:41:03;6.20;89.80
66928;DHT22;59882;45.624;11.698;2023-12-14T01:43:29;6.20;89.70
66928;DHT22;59882;45.624;11.698;2023-12-14T01:45:54;6.20;89.60
66928;DHT22;59882;45.624;11.698;2023-12-14T01:48:20;6.10;89.40
66928;DHT22;59882;45.624;11.698;2023-12-14T01:50:46;6.00;89.20
66928;DHT22;59882;45.624;11.698;2023-12-14T01:53:12;5.90;89.30
66928;DHT22;59882;45.624;11.698;2023-12-14T01:55:37;5.90;89.40
66928;DHT22;59882;45.624;11.698;2023-12-14T01:58:03;5.90;89.40
66928;DHT22;59882;45.624;11.698;2023-12-14T02:00:49;5.80;89.40
66928;DHT22;59882;45.624;11.698;2023-12-14T02:03:16;5.80;89.40
66928;DHT22;59882;45.624;11.698;2023-12-14T02:05:42;5.80;89.40
66928;DHT22;59882;45.624;11.698;2023-12-14T02:08:08;5.80;89.30
66928;DHT22;59882;45.624;11.698;2023-12-14T02:10:34;5.80;89.30
66928;DHT22;59882;45.624;11.698;2023-12-14T02:13:04;5.70;89.30
66928;DHT22;59882;45.624;11.698;2023-12-14T02:15:29;5.60;89.20
66928;DHT22;59882;45.624;11.698;2023-12-14T02:17:55;5.60;89.10
66928;DHT22;59882;45.624;11.698;2023-12-14T02:20:21;5.50;89.10
66928;DHT22;59882;45.624;11.698;2023-12-14T02:22:56;5.50;89.10
66928;DHT22;59882;45.624;11.698;2023-12-14T02:25:23;5.50;89.10
66928;DHT22;59882;45.624;11.698;2023-12-14T02:27:50;5.40;89.30
66928;DHT22;59882;45.624;11.698;2023-12-14T02:30:17;5.40;89.30
66928;DHT22;59882;45.624;11.698;2023-12-14T02:32:43;5.40;89.30
66928;DHT22;59882;45.624;11.698;2023-12-14T02:35:09;5.40;89.30
66928;DHT22;59882;45.624;11.698;2023-12-14T02:37:35;5.40;89.30
66928;DHT22;59882;45.624;11.698;2023-12-14T02:40:06;5.30;89.20
66928;DHT22;59882;45.624;11.698;2023-12-14T02:42:32;5.30;89.10
66928;DHT22;59882;45.624;11.698;2023-12-14T02:44:58;5.30;89.20
66928;DHT22;59882;45.624;11.698;2023-12-14T02:47:23;5.20;89.40
66928;DHT22;59882;45.624;11.698;2023-12-14T02:49:49;5.20;89.50
66928;DHT22;59882;45.624;11.698;2023-12-14T02:52:15;5.30;89.50
66928;DHT22;59882;45.624;11.698;2023-12-14T02:54:40;5.20;89.50
66928;DHT22;59882;45.624;11.698;2023-12-14T02:57:06;5.20;89.40
66928;DHT22;59882;45.624;11.698;2023-12-14T02:59:32;5.20;89.40
66928;DHT22;59882;45.624;11.698;2023-12-14T03:01:58;5.20;89.40
66928;DHT22;59882;45.624;11.698;2023-12-14T03:04:23;5.20;89.40
66928;DHT22;59882;45.624;11.698;2023-12-14T03:06:49;5.30;89.40
66928;DHT22;59882;45.624;11.698;2023-12-14T03:09:15;5.20;89.10
66928;DHT22;59882;45.624;11.698;2023-12-14T03:11:40;5.20;89.10
66928;DHT22;59882;45.624;11.698;2023-12-14T03:14:06;5.20;89.20
66928;DHT22;59882;45.624;11.698;2023-12-14T03:16:31;5.20;89.20
66928;DHT22;59882;45.624;11.698;2023-12-14T03:18:57;5.10;89.30
66928;DHT22;59882;45.624;11.698;2023-12-14T03:21:23;5.10;89.20
66928;DHT22;59882;45.624;11.698;2023-12-14T03:23:49;5.10;89.20
66928;DHT22;59882;45.624;11.698;2023-12-14T03:26:15;5.10;89.20
66928;DHT22;59882;45.624;11.698;2023-12-14T03:28:41;5.10;89.20
66928;DHT22;59882;45.624;11.698;2023-12-14T03:31:06;5.20;89.30
66928;DHT22;59882;45.624;11.698;2023-12-14T03:33:32;5.20;89.30
66928;DHT22;59882;45.624;11.698;2023-12-14T03:35:58;5.20;89.20
66928;DHT22;59882;45.624;11.698;2023-12-14T03:38:25;5.30;89.20
66928;DHT22;59882;45.624;11.698;2023-12-14T03:40:50;5.30;89.10
66928;DHT22;59882;45.624;11.698;2023-12-14T03:43:16;5.20;89.00
66928;DHT22;59882;45.624;11.698;2023-12-14T03:45:42;5.10;89.00
66928;DHT22;59882;45.624;11.698;2023-12-14T03:48:07;5.20;89.00
66928;DHT22;59882;45.624;11.698;2023-12-14T03:50:33;5.10;88.90
66928;DHT22;59882;45.624;11.698;2023-12-14T03:52:59;5.10;89.00
66928;DHT22;59882;45.624;11.698;2023-12-14T03:55:24;5.20;89.00
66928;DHT22;59882;45.624;11.698;2023-12-14T03:57:50;5.10;89.00
66928;DHT22;59882;45.624;11.698;2023-12-14T04:00:16;5.10;89.00
66928;DHT22;59882;45.624;11.698;2023-12-14T04:02:42;5.00;89.00
66928;DHT22;59882;45.624;11.698;2023-12-14T04:05:09;5.00;89.00
66928;DHT22;59882;45.624;11.698;2023-12-14T04:07:38;5.00;88.90
66928;DHT22;59882;45.624;11.698;2023-12-14T04:10:09;4.90;88.90
66928;DHT22;59882;45.624;11.698;2023-12-14T04:12:35;4.90;89.00
66928;DHT22;59882;45.624;11.698;2023-12-14T04:15:02;4.90;89.00
66928;DHT22;59882;45.624;11.698;2023-12-14T04:17:27;4.90;89.00
66928;DHT22;59882;45.624;11.698;2023-12-14T04:19:53;4.90;89.10
66928;DHT22;59882;45.624;11.698;2023-12-14T04:22:19;4.90;89.10
66928;DHT22;59882;45.624;11.698;2023-12-14T04:24:44;4.90;89.00
66928;DHT22;59882;45.624;11.698;2023-12-14T04:27:10;4.90;89.10
66928;DHT22;59882;45.624;11.698;2023-12-14T04:29:35;4.90;89.00
66928;DHT22;59882;45.624;11.698;2023-12-14T04:32:01;4.90;88.90
66928;DHT22;59882;45.624;11.698;2023-12-14T04:34:27;4.90;88.80
66928;DHT22;59882;45.624;11.698;2023-12-14T04:36:53;4.90;88.80
66928;DHT22;59882;45.624;11.698;2023-12-14T04:39:23;4.90;88.80
66928;DHT22;59882;45.624;11.698;2023-12-14T04:41:50;4.90;88.80
66928;DHT22;59882;45.624;11.698;2023-12-14T04:44:16;4.90;88.70
66928;DHT22;59882;45.624;11.698;2023-12-14T04:46:41;4.80;88.60
66928;DHT22;59882;45.624;11.698;2023-12-14T04:49:07;4.80;88.50
66928;DHT22;59882;45.624;11.698;2023-12-14T04:51:33;4.80;88.40
66928;DHT22;59882;45.624;11.698;2023-12-14T04:53:59;4.80;88.20
66928;DHT22;59882;45.624;11.698;2023-12-14T04:56:24;4.70;88.20
66928;DHT22;59882;45.624;11.698;2023-12-14T04:58:50;4.70;88.20
66928;DHT22;59882;45.624;11.698;2023-12-14T05:01:15;4.60;88.40
66928;DHT22;59882;45.624;11.698;2023-12-14T05:03:41;4.60;88.40
66928;DHT22;59882;45.624;11.698;2023-12-14T05:06:07;4.60;88.40
66928;DHT22;59882;45.624;11.698;2023-12-14T05:08:32;4.50;88.30
66928;DHT22;59882;45.624;11.698;2023-12-14T05:10:58;4.60;88.30
66928;DHT22;59882;45.624;11.698;2023-12-14T05:13:24;4.50;88.40
66928;DHT22;59882;45.624;11.698;2023-12-14T05:15:51;4.50;88.40
66928;DHT22;59882;45.624;11.698;2023-12-14T05:18:17;4.50;88.20
66928;DHT22;59882;45.624;11.698;2023-12-14T05:20:43;4.50;88.10
66928;DHT22;59882;45.624;11.698;2023-12-14T05:23:11;4.50;88.10
66928;DHT22;59882;45.624;11.698;2023-12-14T05:25:36;4.50;88.20
66928;DHT22;59882;45.624;11.698;2023-12-14T05:28:02;4.50;88.30
66928;DHT22;59882;45.624;11.698;2023-12-14T05:30:29;4.40;88.30
66928;DHT22;59882;45.624;11.698;2023-12-14T05:32:54;4.40;88.30
66928;DHT22;59882;45.624;11.698;2023-12-14T05:35:20;4.40;88.40
66928;DHT22;59882;45.624;11.698;2023-12-14T05:37:45;4.40;88.30
66928;DHT22;59882;45.624;11.698;2023-12-14T05:40:11;4.40;88.30
66928;DHT22;59882;45.624;11.698;2023-12-14T05:42:37;4.40;88.30
66928;DHT22;59882;45.624;11.698;2023-12-14T05:45:07;4.40;88.30
66928;DHT22;59882;45.624;11.698;2023-12-14T05:47:32;4.40;88.40
66928;DHT22;59882;45.624;11.698;2023-12-14T05:50:00;4.40;88.40
66928;DHT22;59882;45.624;11.698;2023-12-14T05:52:25;4.40;88.40
66928;DHT22;59882;45.624;11.698;2023-12-14T05:54:51;4.50;88.40
66928;DHT22;59882;45.624;11.698;2023-12-14T05:57:17;4.40;88.00
66928;DHT22;59882;45.624;11.698;2023-12-14T05:59:43;4.30;87.90
66928;DHT22;59882;45.624;11.698;2023-12-14T06:02:08;4.30;88.00
66928;DHT22;59882;45.624;11.698;2023-12-14T06:04:34;4.30;88.10
66928;DHT22;59882;45.624;11.698;2023-12-14T06:07:00;4.20;88.10
66928;DHT22;59882;45.624;11.698;2023-12-14T06:09:26;4.20;88.30
66928;DHT22;59882;45.624;11.698;2023-12-14T06:12:01;4.20;88.30
66928;DHT22;59882;45.624;11.698;2023-12-14T06:14:27;4.20;88.40
66928;DHT22;59882;45.624;11.698;2023-12-14T06:16:55;4.20;88.40
66928;DHT22;59882;45.624;11.698;2023-12-14T06:19:21;4.20;88.40
66928;DHT22;59882;45.624;11.698;2023-12-14T06:21:47;4.10;88.30
66928;DHT22;59882;45.624;11.698;2023-12-14T06:24:13;4.10;88.30
66928;DHT22;59882;45.624;11.698;2023-12-14T06:26:42;4.10;88.30
66928;DHT22;59882;45.624;11.698;2023-12-14T06:29:12;4.10;88.40
66928;DHT22;59882;45.624;11.698;2023-12-14T06:31:40;4.10;88.40
66928;DHT22;59882;45.624;11.698;2023-12-14T06:34:06;4.10;88.40
66928;DHT22;59882;45.624;11.698;2023-12-14T06:36:35;4.10;88.40
66928;DHT22;59882;45.624;11.698;2023-12-14T06:39:01;4.10;88.40
66928;DHT22;59882;45.624;11.698;2023-12-14T06:41:28;4.10;88.40
66928;DHT22;59882;45.624;11.698;2023-12-14T06:43:54;4.10;88.40
66928;DHT22;59882;45.624;11.698;2023-12-14T06:46:21;4.00;88.20
66928;DHT22;59882;45.624;11.698;2023-12-14T06:48:47;4.10;88.30
66928;DHT22;59882;45.624;11.698;2023-12-14T06:51:13;4.10;88.30
66928;DHT22;59882;45.624;11.698;2023-12-14T06:53:43;4.00;88.20
66928;DHT22;59882;45.624;11.698;2023-12-14T06:56:09;4.10;88.00
66928;DHT22;59882;45.624;11.698;2023-12-14T06:58:37;4.00;88.10
66928;DHT22;59882;45.624;11.698;2023-12-14T07:01:02;4.00;88.00
66928;DHT22;59882;45.624;11.698;2023-12-14T07:03:28;4.00;87.90
66928;DHT22;59882;45.624;11.698;2023-12-14T07:05:54;3.90;87.90
66928;DHT22;59882;45.624;11.698;2023-12-14T07:08:19;3.90;88.00
66928;DHT22;59882;45.624;11.698;2023-12-14T07:10:45;3.90;88.20
66928;DHT22;59882;45.624;11.698;2023-12-14T07:13:11;3.90;88.40
66928;DHT22;59882;45.624;11.698;2023-12-14T07:15:36;3.90;88.70
66928;DHT22;59882;45.624;11.698;2023-12-14T07:18:02;4.00;89.40
66928;DHT22;59882;45.624;11.698;2023-12-14T07:20:27;4.00;89.40
66928;DHT22;59882;45.624;11.698;2023-12-14T07:22:53;4.00;89.50
66928;DHT22;59882;45.624;11.698;2023-12-14T07:25:19;4.10;89.50
66928;DHT22;59882;45.624;11.698;2023-12-14T07:27:44;4.10;89.60
66928;DHT22;59882;45.624;11.698;2023-12-14T07:30:12;4.20;89.50
66928;DHT22;59882;45.624;11.698;2023-12-14T07:32:38;4.20;89.50
66928;DHT22;59882;45.624;11.698;2023-12-14T07:35:04;4.30;89.60
66928;DHT22;59882;45.624;11.698;2023-12-14T07:37:30;4.30;89.60
66928;DHT22;59882;45.624;11.698;2023-12-14T07:39:56;4.30;89.60
66928;DHT22;59882;45.624;11.698;2023-12-14T07:42:23;4.40;89.50
66928;DHT22;59882;45.624;11.698;2023-12-14T07:44:49;4.40;89.50
66928;DHT22;59882;45.624;11.698;2023-12-14T07:47:14;4.40;89.50
66928;DHT22;59882;45.624;11.698;2023-12-14T07:49:40;4.40;89.50
66928;DHT22;59882;45.624;11.698;2023-12-14T07:52:06;4.40;89.50
66928;DHT22;59882;45.624;11.698;2023-12-14T07:54:32;4.50;89.50
66928;DHT22;59882;45.624;11.698;2023-12-14T07:56:57;4.50;89.40
66928;DHT22;59882;45.624;11.698;2023-12-14T07:59:23;4.50;89.50
66928;DHT22;59882;45.624;11.698;2023-12-14T08:01:48;4.50;89.40
66928;DHT22;59882;45.624;11.698;2023-12-14T08:04:14;4.60;89.40
66928;DHT22;59882;45.624;11.698;2023-12-14T08:06:40;4.60;89.20
66928;DHT22;59882;45.624;11.698;2023-12-14T08:09:06;4.60;89.00
66928;DHT22;59882;45.624;11.698;2023-12-14T08:11:32;4.60;89.10
66928;DHT22;59882;45.624;11.698;2023-12-14T08:13:58;4.50;89.00
66928;DHT22;59882;45.624;11.698;2023-12-14T08:16:24;4.50;89.00
66928;DHT22;59882;45.624;11.698;2023-12-14T08:18:49;4.50;89.00
66928;DHT22;59882;45.624;11.698;2023-12-14T08:21:16;4.60;89.00
66928;DHT22;59882;45.624;11.698;2023-12-14T08:23:42;4.50;88.60
66928;DHT22;59882;45.624;11.698;2023-12-14T08:26:07;4.50;88.70
66928;DHT22;59882;45.624;11.698;2023-12-14T08:28:35;4.50;88.80
66928;DHT22;59882;45.624;11.698;2023-12-14T08:31:01;4.50;88.70
66928;DHT22;59882;45.624;11.698;2023-12-14T08:33:29;4.50;88.60
66928;DHT22;59882;45.624;11.698;2023-12-14T08:35:55;4.50;88.70
66928;DHT22;59882;45.624;11.698;2023-12-14T08:38:21;4.60;88.70
66928;DHT22;59882;45.624;11.698;2023-12-14T08:40:46;4.60;88.60
66928;DHT22;59882;45.624;11.698;2023-12-14T08:43:12;4.60;88.50
66928;DHT22;59882;45.624;11.698;2023-12-14T08:45:38;4.60;88.60
66928;DHT22;59882;45.624;11.698;2023-12-14T08:48:04;4.60;88.60
66928;DHT22;59882;45.624;11.698;2023-12-14T08:50:30;4.70;88.60
66928;DHT22;59882;45.624;11.698;2023-12-14T08:52:55;4.70;88.60
66928;DHT22;59882;45.624;11.698;2023-12-14T08:55:24;4.80;88.60
66928;DHT22;59882;45.624;11.698;2023-12-14T08:57:50;4.80;88.60
66928;DHT22;59882;45.624;11.698;2023-12-14T09:00:16;4.90;88.50
66928;DHT22;59882;45.624;11.698;2023-12-14T09:02:43;4.90;88.70
66928;DHT22;59882;45.624;11.698;2023-12-14T09:05:12;4.90;88.90
66928;DHT22;59882;45.624;11.698;2023-12-14T09:07:37;5.00;88.90
66928;DHT22;59882;45.624;11.698;2023-12-14T09:10:03;5.00;89.00
66928;DHT22;59882;45.624;11.698;2023-12-14T09:12:29;5.10;89.00
66928;DHT22;59882;45.624;11.698;2023-12-14T09:14:55;5.10;89.00
66928;DHT22;59882;45.624;11.698;2023-12-14T09:17:21;5.20;89.20
66928;DHT22;59882;45.624;11.698;2023-12-14T09:19:55;5.20;89.30
66928;DHT22;59882;45.624;11.698;2023-12-14T09:22:21;5.30;89.40
66928;DHT22;59882;45.624;11.698;2023-12-14T09:24:47;5.30;89.40
66928;DHT22;59882;45.624;11.698;2023-12-14T09:27:12;5.40;89.50
66928;DHT22;59882;45.624;11.698;2023-12-14T09:29:38;5.50;89.60
66928;DHT22;59882;45.624;11.698;2023-12-14T09:32:04;5.50;89.80
66928;DHT22;59882;45.624;11.698;2023-12-14T09:34:30;5.60;89.90
66928;DHT22;59882;45.624;11.698;2023-12-14T09:36:55;5.70;89.60
66928;DHT22;59882;45.624;11.698;2023-12-14T09:39:21;5.80;89.60
66928;DHT22;59882;45.624;11.698;2023-12-14T09:41:47;5.90;89.60
66928;DHT22;59882;45.624;11.698;2023-12-14T09:44:15;5.90;89.50
66928;DHT22;59882;45.624;11.698;2023-12-14T09:46:41;5.90;89.60
66928;DHT22;59882;45.624;11.698;2023-12-14T09:49:12;6.00;89.90
66928;DHT22;59882;45.624;11.698;2023-12-14T09:51:38;6.10;90.00
66928;DHT22;59882;45.624;11.698;2023-12-14T09:54:06;6.10;89.70
66928;DHT22;59882;45.624;11.698;2023-12-14T09:56:31;6.20;90.00
66928;DHT22;59882;45.624;11.698;2023-12-14T09:58:57;6.20;90.10
66928;DHT22;59882;45.624;11.698;2023-12-14T10:01:27;6.20;90.60
66928;DHT22;59882;45.624;11.698;2023-12-14T10:04:15;6.30;90.80
66928;DHT22;59882;45.624;11.698;2023-12-14T10:06:43;6.40;90.90
66928;DHT22;59882;45.624;11.698;2023-12-14T10:09:09;6.60;91.00
66928;DHT22;59882;45.624;11.698;2023-12-14T10:11:39;6.70;90.70
66928;DHT22;59882;45.624;11.698;2023-12-14T10:14:22;6.80;90.40
66928;DHT22;59882;45.624;11.698;2023-12-14T10:16:50;7.00;90.40
66928;DHT22;59882;45.624;11.698;2023-12-14T10:19:20;7.00;90.50
66928;DHT22;59882;45.624;11.698;2023-12-14T10:21:49;7.10;90.50
66928;DHT22;59882;45.624;11.698;2023-12-14T10:24:16;7.10;90.60
66928;DHT22;59882;45.624;11.698;2023-12-14T10:26:44;7.10;90.60
66928;DHT22;59882;45.624;11.698;2023-12-14T10:29:10;7.20;90.90
66928;DHT22;59882;45.624;11.698;2023-12-14T10:31:36;7.20;91.30
66928;DHT22;59882;45.624;11.698;2023-12-14T10:34:06;7.20;91.40
66928;DHT22;59882;45.624;11.698;2023-12-14T10:36:32;7.30;91.60
66928;DHT22;59882;45.624;11.698;2023-12-14T10:39:00;7.30;91.50
66928;DHT22;59882;45.624;11.698;2023-12-14T10:41:25;7.30;91.50
66928;DHT22;59882;45.624;11.698;2023-12-14T10:43:54;7.40;91.10
66928;DHT22;59882;45.624;11.698;2023-12-14T10:46:20;7.50;91.30
66928;DHT22;59882;45.624;11.698;2023-12-14T10:48:50;7.60;91.30
66928;DHT22;59882;45.624;11.698;2023-12-14T10:51:18;7.70;91.20
66928;DHT22;59882;45.624;11.698;2023-12-14T10:53:45;7.80;91.20
66928;DHT22;59882;45.624;11.698;2023-12-14T10:56:14;7.80;91.10
66928;DHT22;59882;45.624;11.698;2023-12-14T10:58:57;7.90;90.70
66928;DHT22;59882;45.624;11.698;2023-12-14T11:01:24;8.00;90.60
66928;DHT22;59882;45.624;11.698;2023-12-14T11:03:53;8.10;90.50
66928;DHT22;59882;45.624;11.698;2023-12-14T11:08:52;8.30;90.50
66928;DHT22;59882;45.624;11.698;2023-12-14T11:11:18;8.30;90.40
66928;DHT22;59882;45.624;11.698;2023-12-14T11:13:54;8.40;90.40
66928;DHT22;59882;45.624;11.698;2023-12-14T11:16:22;8.50;90.60
66928;DHT22;59882;45.624;11.698;2023-12-14T11:18:48;8.50;90.60
66928;DHT22;59882;45.624;11.698;2023-12-14T11:21:19;8.60;90.50
66928;DHT22;59882;45.624;11.698;2023-12-14T11:23:50;8.70;90.20
66928;DHT22;59882;45.624;11.698;2023-12-14T11:26:21;8.80;90.20
66928;DHT22;59882;45.624;11.698;2023-12-14T11:28:48;8.80;90.00
66928;DHT22;59882;45.624;11.698;2023-12-14T11:31:14;8.90;89.50
66928;DHT22;59882;45.624;11.698;2023-12-14T11:33:40;8.90;89.10
66928;DHT22;59882;45.624;11.698;2023-12-14T11:36:06;9.00;89.30
66928;DHT22;59882;45.624;11.698;2023-12-14T11:38:32;9.10;89.40
66928;DHT22;59882;45.624;11.698;2023-12-14T11:41:00;9.20;89.40
66928;DHT22;59882;45.624;11.698;2023-12-14T11:43:26;9.30;89.50
66928;DHT22;59882;45.624;11.698;2023-12-14T11:45:52;9.40;89.50
66928;DHT22;59882;45.624;11.698;2023-12-14T11:48:19;9.50;89.40
66928;DHT22;59882;45.624;11.698;2023-12-14T11:50:46;9.60;89.30
66928;DHT22;59882;45.624;11.698;2023-12-14T11:53:13;9.70;89.10
66928;DHT22;59882;45.624;11.698;2023-12-14T11:55:41;9.80;88.50
66928;DHT22;59882;45.624;11.698;2023-12-14T11:58:07;9.90;88.80
66928;DHT22;59882;45.624;11.698;2023-12-14T12:00:34;10.10;89.00
66928;DHT22;59882;45.624;11.698;2023-12-14T12:03:19;10.50;89.90
66928;DHT22;59882;45.624;11.698;2023-12-14T12:05:48;12.40;88.70
66928;DHT22;59882;45.624;11.698;2023-12-14T12:08:15;14.50;81.40
66928;DHT22;59882;45.624;11.698;2023-12-14T12:10:42;16.80;77.70
66928;DHT22;59882;45.624;11.698;2023-12-14T12:13:13;18.80;70.70
66928;DHT22;59882;45.624;11.698;2023-12-14T12:15:39;20.80;63.00
66928;DHT22;59882;45.624;11.698;2023-12-14T12:18:16;22.40;57.20
66928;DHT22;59882;45.624;11.698;2023-12-14T12:20:42;23.90;51.50
66928;DHT22;59882;45.624;11.698;2023-12-14T12:23:08;25.10;49.30
66928;DHT22;59882;45.624;11.698;2023-12-14T12:25:34;26.20;46.60
66928;DHT22;59882;45.624;11.698;2023-12-14T12:28:00;27.20;43.30
66928;DHT22;59882;45.624;11.698;2023-12-14T12:30:27;27.90;41.60
66928;DHT22;59882;45.624;11.698;2023-12-14T12:32:53;28.20;39.00
66928;DHT22;59882;45.624;11.698;2023-12-14T12:35:21;28.30;37.60
66928;DHT22;59882;45.624;11.698;2023-12-14T12:37:46;28.20;36.00
66928;DHT22;59882;45.624;11.698;2023-12-14T12:40:13;28.50;36.70
66928;DHT22;59882;45.624;11.698;2023-12-14T12:42:41;28.70;34.70
66928;DHT22;59882;45.624;11.698;2023-12-14T12:45:07;29.00;35.20
66928;DHT22;59882;45.624;11.698;2023-12-14T12:47:32;29.30;34.50
66928;DHT22;59882;45.624;11.698;2023-12-14T12:49:58;29.20;33.90
66928;DHT22;59882;45.624;11.698;2023-12-14T12:52:23;29.50;33.00
66928;DHT22;59882;45.624;11.698;2023-12-14T12:54:49;29.80;32.00
66928;DHT22;59882;45.624;11.698;2023-12-14T12:57:15;30.00;33.40
66928;DHT22;59882;45.624;11.698;2023-12-14T12:59:41;30.20;32.50
66928;DHT22;59882;45.624;11.698;2023-12-14T13:02:06;29.90;32.50
66928;DHT22;59882;45.624;11.698;2023-12-14T13:04:32;28.90;33.20
66928;DHT22;59882;45.624;11.698;2023-12-14T13:06:58;27.00;34.70
66928;DHT22;59882;45.624;11.698;2023-12-14T13:09:27;25.40;36.80
66928;DHT22;59882;45.624;11.698;2023-12-14T13:11:53;23.70;38.90
66928;DHT22;59882;45.624;11.698;2023-12-14T13:14:18;22.40;41.60
66928;DHT22;59882;45.624;11.698;2023-12-14T13:16:44;22.40;42.70
66928;DHT22;59882;45.624;11.698;2023-12-14T13:19:09;22.80;42.70
66928;DHT22;59882;45.624;11.698;2023-12-14T13:21:35;23.10;42.70
66928;DHT22;59882;45.624;11.698;2023-12-14T13:24:02;23.40;41.70
66928;DHT22;59882;45.624;11.698;2023-12-14T13:26:28;23.30;41.40
66928;DHT22;59882;45.624;11.698;2023-12-14T13:28:54;22.50;42.60
66928;DHT22;59882;45.624;11.698;2023-12-14T13:31:20;21.30;44.10
66928;DHT22;59882;45.624;11.698;2023-12-14T13:33:46;20.20;46.20
66928;DHT22;59882;45.624;11.698;2023-12-14T13:36:12;19.40;48.60
66928;DHT22;59882;45.624;11.698;2023-12-14T13:38:38;19.20;49.70
66928;DHT22;59882;45.624;11.698;2023-12-14T13:41:04;19.20;50.30
66928;DHT22;59882;45.624;11.698;2023-12-14T13:43:29;19.20;50.30
66928;DHT22;59882;45.624;11.698;2023-12-14T13:45:55;18.70;50.80
66928;DHT22;59882;45.624;11.698;2023-12-14T13:48:25;17.90;51.90
66928;DHT22;59882;45.624;11.698;2023-12-14T13:50:51;17.10;53.70
66928;DHT22;59882;45.624;11.698;2023-12-14T13:53:17;16.40;55.20
66928;DHT22;59882;45.624;11.698;2023-12-14T13:55:43;15.80;57.10
66928;DHT22;59882;45.624;11.698;2023-12-14T13:58:08;15.30;59.20
66928;DHT22;59882;45.624;11.698;2023-12-14T14:00:34;14.80;60.30
66928;DHT22;59882;45.624;11.698;2023-12-14T14:03:03;14.40;61.60
66928;DHT22;59882;45.624;11.698;2023-12-14T14:05:29;13.90;63.10
66928;DHT22;59882;45.624;11.698;2023-12-14T14:07:57;13.50;65.30
66928;DHT22;59882;45.624;11.698;2023-12-14T14:10:23;13.20;65.70
66928;DHT22;59882;45.624;11.698;2023-12-14T14:12:49;12.90;66.40
66928;DHT22;59882;45.624;11.698;2023-12-14T14:15:15;12.60;68.20
66928;DHT22;59882;45.624;11.698;2023-12-14T14:17:41;12.40;68.20
66928;DHT22;59882;45.624;11.698;2023-12-14T14:20:07;12.10;69.60
66928;DHT22;59882;45.624;11.698;2023-12-14T14:22:36;11.90;71.60
66928;DHT22;59882;45.624;11.698;2023-12-14T14:25:02;11.80;72.50
66928;DHT22;59882;45.624;11.698;2023-12-14T14:27:28;11.60;71.80
66928;DHT22;59882;45.624;11.698;2023-12-14T14:29:54;11.50;73.00
66928;DHT22;59882;45.624;11.698;2023-12-14T14:32:22;11.40;73.50
66928;DHT22;59882;45.624;11.698;2023-12-14T14:34:47;11.30;74.00
66928;DHT22;59882;45.624;11.698;2023-12-14T14:37:13;11.10;74.60
66928;DHT22;59882;45.624;11.698;2023-12-14T14:39:39;11.00;74.80
66928;DHT22;59882;45.624;11.698;2023-12-14T14:42:08;10.90;75.00
66928;DHT22;59882;45.624;11.698;2023-12-14T14:44:34;10.80;76.30
66928;DHT22;59882;45.624;11.698;2023-12-14T14:47:00;10.70;76.00
66928;DHT22;59882;45.624;11.698;2023-12-14T14:49:26;10.60;77.70
66928;DHT22;59882;45.624;11.698;2023-12-14T14:51:51;10.50;78.40
66928;DHT22;59882;45.624;11.698;2023-12-14T14:54:17;10.40;78.40
66928;DHT22;59882;45.624;11.698;2023-12-14T14:56:43;10.30;77.90
66928;DHT22;59882;45.624;11.698;2023-12-14T14:59:09;10.20;78.30
66928;DHT22;59882;45.624;11.698;2023-12-14T15:01:36;10.20;78.50
66928;DHT22;59882;45.624;11.698;2023-12-14T15:04:02;10.10;78.90
66928;DHT22;59882;45.624;11.698;2023-12-14T15:06:28;10.10;79.00
66928;DHT22;59882;45.624;11.698;2023-12-14T15:08:53;10.00;79.30
66928;DHT22;59882;45.624;11.698;2023-12-14T15:11:19;9.90;79.50
66928;DHT22;59882;45.624;11.698;2023-12-14T15:13:44;9.80;79.80
66928;DHT22;59882;45.624;11.698;2023-12-14T15:16:10;9.80;80.20
66928;DHT22;59882;45.624;11.698;2023-12-14T15:18:37;9.80;81.40
66928;DHT22;59882;45.624;11.698;2023-12-14T15:21:09;9.80;81.50
66928;DHT22;59882;45.624;11.698;2023-12-14T15:23:35;9.80;81.30
66928;DHT22;59882;45.624;11.698;2023-12-14T15:26:02;9.70;81.70